Time;durP1;ratioP1;P1;durP2;ratioP2;P2;SDS_P1;SDS_P2;PMS_P1;PMS_P2;Temp;Humidity;BMP_temperature;BMP_pressure;BME280_temperature;BME280_humidity;BME280_pressure;Samples;Min_cycle;Max_cycle;Signal;HPM_P1;HPM_P2
2021/12/03 00:00:45;;;;;;;3.20;1.23;;;1.10;99.90;;;;;;5009983;28;20183;-86
2021/12/03 00:03:12;;;;;;;2.00;0.90;;;1.10;99.90;;;;;;5009918;28;20030;-86
2021/12/03 00:05:39;;;;;;;2.47;1.03;;;1.10;99.90;;;;;;5025314;28;20029;-86
2021/12/03 00:08:06;;;;;;;1.80;0.97;;;1.10;99.90;;;;;;5013342;28;20490;-86
2021/12/03 00:10:32;;;;;;;4.10;1.27;;;1.10;99.90;;;;;;5013191;28;20072;-86
2021/12/03 00:13:00;;;;;;;3.67;1.30;;;1.10;99.90;;;;;;5030620;28;20576;-86
2021/12/03 00:15:27;;;;;;;3.20;1.20;;;1.00;99.90;;;;;;5009632;28;20037;-86
2021/12/03 00:17:54;;;;;;;4.27;0.90;;;1.00;99.90;;;;;;5009631;28;20394;-86
2021/12/03 00:20:21;;;;;;;5.40;1.00;;;1.00;99.90;;;;;;5009857;28;20033;-86
2021/12/03 00:22:50;;;;;;;4.17;1.40;;;1.00;99.90;;;;;;5011783;28;20033;-86
2021/12/03 00:25:16;;;;;;;3.67;1.30;;;1.10;99.90;;;;;;5015816;28;20037;-86
2021/12/03 00:27:42;;;;;;;3.83;0.97;;;1.10;99.90;;;;;;5011030;28;20041;-86
2021/12/03 00:30:11;;;;;;;6.73;1.30;;;1.10;99.90;;;;;;5011027;28;20094;-85
2021/12/03 00:32:36;;;;;;;3.67;1.33;;;1.00;99.90;;;;;;5009757;28;20026;-85
2021/12/03 00:35:04;;;;;;;4.97;1.33;;;1.00;99.90;;;;;;5030729;28;20036;-86
2021/12/03 00:37:29;;;;;;;4.63;1.27;;;0.90;99.90;;;;;;5030400;28;20029;-86
2021/12/03 00:39:55;;;;;;;2.77;1.13;;;0.90;99.90;;;;;;5029159;28;20064;-86
2021/12/03 00:42:21;;;;;;;3.83;1.40;;;0.90;99.90;;;;;;5008747;28;20042;-85
2021/12/03 00:44:52;;;;;;;3.97;1.63;;;0.90;99.90;;;;;;5012137;28;20084;-86
2021/12/03 00:47:18;;;;;;;3.13;1.10;;;0.90;99.90;;;;;;5024812;28;20040;-86
2021/12/03 00:49:43;;;;;;;7.27;1.13;;;0.80;99.90;;;;;;5014962;28;20034;-83
2021/12/03 00:52:09;;;;;;;4.77;1.50;;;0.80;99.90;;;;;;5034077;28;20095;-85
2021/12/03 00:54:35;;;;;;;2.63;1.07;;;0.80;99.90;;;;;;5033981;28;20037;-85
2021/12/03 00:57:02;;;;;;;3.13;1.23;;;0.80;99.90;;;;;;5034092;28;20490;-85
2021/12/03 00:59:28;;;;;;;4.97;1.50;;;0.80;99.90;;;;;;5019250;28;20029;-85
2021/12/03 01:01:54;;;;;;;7.47;1.60;;;0.80;99.90;;;;;;5015118;28;20084;-85
2021/12/03 01:04:19;;;;;;;3.13;1.30;;;0.70;99.90;;;;;;5015588;28;20528;-85
2021/12/03 01:06:45;;;;;;;5.93;1.33;;;0.70;99.90;;;;;;5017001;28;20047;-85
2021/12/03 01:09:11;;;;;;;3.67;1.53;;;0.70;99.90;;;;;;5017052;28;20026;-85
2021/12/03 01:11:37;;;;;;;4.80;1.70;;;0.70;99.90;;;;;;5016657;28;20030;-85
2021/12/03 01:14:03;;;;;;;6.63;1.83;;;0.60;99.90;;;;;;5011848;28;20513;-85
2021/12/03 01:16:30;;;;;;;2.60;1.13;;;0.60;99.90;;;;;;5016919;28;20037;-85
2021/12/03 01:18:57;;;;;;;5.07;1.70;;;0.60;99.90;;;;;;5034608;28;20033;-85
2021/12/03 01:21:23;;;;;;;3.17;1.47;;;0.60;99.90;;;;;;5008353;28;20030;-85
2021/12/03 01:23:49;;;;;;;5.43;1.70;;;0.60;99.90;;;;;;5016637;28;20390;-85
2021/12/03 01:26:15;;;;;;;3.70;1.70;;;0.60;99.90;;;;;;5016191;28;20037;-85
2021/12/03 01:28:41;;;;;;;6.43;1.90;;;0.60;99.90;;;;;;5019329;28;20032;-85
2021/12/03 01:31:07;;;;;;;8.47;2.20;;;0.60;99.90;;;;;;5019340;28;20096;-85
2021/12/03 01:33:33;;;;;;;4.07;1.43;;;0.60;99.90;;;;;;5037392;28;20689;-85
2021/12/03 01:35:59;;;;;;;2.70;1.43;;;0.60;99.90;;;;;;5013078;28;20030;-85
2021/12/03 01:38:25;;;;;;;4.80;1.80;;;0.60;99.90;;;;;;5012612;28;20116;-85
2021/12/03 01:40:51;;;;;;;5.17;1.70;;;0.60;99.90;;;;;;4996721;28;20022;-85
2021/12/03 01:43:25;;;;;;;3.37;1.73;;;0.70;99.90;;;;;;5024056;28;20029;-85
2021/12/03 01:45:53;;;;;;;5.27;2.23;;;0.70;99.90;;;;;;5034348;28;20029;-85
2021/12/03 01:48:19;;;;;;;7.53;2.17;;;0.70;99.90;;;;;;5016414;28;20072;-85
2021/12/03 01:50:46;;;;;;;4.70;1.93;;;0.70;99.90;;;;;;5014183;28;20029;-85
2021/12/03 01:53:15;;;;;;;4.23;1.87;;;0.70;99.90;;;;;;5016042;28;20030;-85
2021/12/03 01:55:43;;;;;;;3.67;1.80;;;0.70;99.90;;;;;;5025591;28;20056;-86
2021/12/03 01:58:09;;;;;;;3.50;1.50;;;0.70;99.90;;;;;;5051248;28;20052;-86
2021/12/03 02:00:42;;;;;;;4.80;2.07;;;0.70;99.90;;;;;;5044926;28;20017;-85
2021/12/03 02:03:09;;;;;;;9.13;2.20;;;0.70;99.90;;;;;;5006972;28;20021;-85
2021/12/03 02:05:35;;;;;;;6.93;1.93;;;0.70;99.90;;;;;;5034607;28;20033;-85
2021/12/03 02:08:02;;;;;;;4.37;1.90;;;0.60;99.90;;;;;;5039365;28;20041;-86
2021/12/03 02:10:27;;;;;;;4.13;1.53;;;0.60;99.90;;;;;;5029658;28;20391;-85
2021/12/03 02:12:53;;;;;;;7.10;1.87;;;0.60;99.90;;;;;;5019104;28;20033;-84
2021/12/03 02:15:19;;;;;;;5.63;1.73;;;0.60;99.90;;;;;;5020158;28;20030;-85
2021/12/03 02:17:45;;;;;;;3.93;1.77;;;0.60;99.90;;;;;;5002163;28;20132;-86
2021/12/03 02:20:12;;;;;;;8.67;2.60;;;0.50;99.90;;;;;;5032883;28;20054;-85
2021/12/03 02:22:40;;;;;;;4.37;1.73;;;0.50;99.90;;;;;;5018086;28;20121;-85
2021/12/03 02:25:08;;;;;;;4.53;1.77;;;0.50;99.90;;;;;;5033721;28;20140;-86
2021/12/03 02:27:34;;;;;;;6.53;2.10;;;0.50;99.90;;;;;;5038626;28;20067;-85
2021/12/03 02:30:00;;;;;;;5.27;1.90;;;0.40;99.90;;;;;;5020302;28;20539;-85
2021/12/03 02:32:26;;;;;;;4.00;1.93;;;0.40;99.90;;;;;;5020437;28;20127;-86
2021/12/03 02:34:52;;;;;;;5.13;2.17;;;0.40;99.90;;;;;;5021016;28;20120;-85
2021/12/03 02:37:17;;;;;;;5.23;2.10;;;0.40;99.90;;;;;;5038012;28;20100;-85
2021/12/03 02:39:43;;;;;;;3.83;1.90;;;0.30;99.90;;;;;;5037358;28;20033;-85
2021/12/03 02:42:09;;;;;;;5.10;2.17;;;0.30;99.90;;;;;;5036392;28;20029;-86
2021/12/03 02:44:35;;;;;;;4.00;1.93;;;0.30;99.90;;;;;;5017183;28;20363;-85
2021/12/03 02:47:00;;;;;;;8.40;2.30;;;0.30;99.90;;;;;;5015214;28;20117;-85
2021/12/03 02:49:26;;;;;;;6.67;2.20;;;0.30;99.90;;;;;;4999010;28;20496;-85
2021/12/03 02:51:52;;;;;;;6.77;2.00;;;0.30;99.90;;;;;;5015630;28;20069;-85
2021/12/03 02:54:17;;;;;;;4.23;1.73;;;0.40;99.90;;;;;;5003572;28;20038;-84
2021/12/03 02:56:43;;;;;;;4.87;2.27;;;0.30;99.90;;;;;;5014914;28;20423;-85
2021/12/03 02:59:08;;;;;;;5.37;2.37;;;0.30;99.90;;;;;;5017712;28;20152;-85
2021/12/03 03:01:34;;;;;;;5.37;2.10;;;0.30;99.90;;;;;;5029254;28;20022;-85
2021/12/03 03:04:00;;;;;;;7.57;2.60;;;0.30;99.90;;;;;;5014430;28;20022;-85
2021/12/03 03:06:26;;;;;;;6.73;2.40;;;0.30;99.90;;;;;;5013885;28;20034;-85
2021/12/03 03:08:52;;;;;;;5.33;2.57;;;0.30;99.90;;;;;;5013597;28;20136;-86
2021/12/03 03:11:18;;;;;;;8.23;3.50;;;0.30;99.90;;;;;;5014399;28;20026;-85
2021/12/03 03:13:44;;;;;;;8.60;2.33;;;0.30;99.90;;;;;;5013638;28;20026;-84
2021/12/03 03:16:10;;;;;;;5.63;2.40;;;0.40;99.90;;;;;;5020427;28;20532;-85
2021/12/03 03:18:37;;;;;;;8.20;2.73;;;0.40;99.90;;;;;;5016116;28;20080;-85
2021/12/03 03:21:05;;;;;;;6.87;2.90;;;0.40;99.90;;;;;;5016551;28;20120;-85
2021/12/03 03:23:32;;;;;;;6.70;2.40;;;0.30;99.90;;;;;;5026907;28;20021;-85
2021/12/03 03:25:58;;;;;;;6.83;2.80;;;0.30;99.90;;;;;;5048929;28;20026;-85
2021/12/03 03:28:25;;;;;;;6.57;2.40;;;0.40;99.90;;;;;;5032634;28;20018;-85
2021/12/03 03:30:53;;;;;;;4.30;2.00;;;0.30;99.90;;;;;;5016317;28;20030;-85
2021/12/03 03:33:19;;;;;;;5.30;2.47;;;0.40;99.90;;;;;;4995660;28;20056;-85
2021/12/03 03:35:45;;;;;;;7.13;2.50;;;0.30;99.90;;;;;;5011945;28;20097;-85
2021/12/03 03:38:11;;;;;;;6.67;2.73;;;0.40;99.90;;;;;;5034870;28;20191;-85
2021/12/03 03:40:38;;;;;;;4.80;2.33;;;0.40;99.90;;;;;;5011247;28;20112;-85
2021/12/03 03:43:05;;;;;;;6.37;2.73;;;0.40;99.90;;;;;;5011086;28;20048;-85
2021/12/03 03:45:31;;;;;;;8.33;3.27;;;0.40;99.90;;;;;;5012974;28;20096;-85
2021/12/03 03:47:57;;;;;;;8.80;3.07;;;0.50;99.90;;;;;;5028675;28;20543;-85
2021/12/03 03:50:24;;;;;;;10.23;2.70;;;0.50;99.90;;;;;;5033083;28;20029;-85
2021/12/03 03:52:52;;;;;;;5.83;2.60;;;0.50;99.90;;;;;;5015130;28;20029;-85
2021/12/03 03:55:18;;;;;;;8.23;2.90;;;0.50;99.90;;;;;;5010711;28;20069;-85
2021/12/03 03:57:45;;;;;;;9.50;3.17;;;0.50;99.90;;;;;;5012708;28;20026;-85
2021/12/03 04:00:15;;;;;;;6.47;2.90;;;0.50;99.90;;;;;;5011335;28;20022;-85
2021/12/03 04:02:40;;;;;;;4.33;2.20;;;0.50;99.90;;;;;;5017320;28;20085;-85
2021/12/03 04:05:07;;;;;;;6.03;2.90;;;0.50;99.90;;;;;;5012278;28;20022;-85
2021/12/03 04:07:34;;;;;;;11.43;2.50;;;0.60;99.90;;;;;;5035097;22;20061;-86
2021/12/03 04:09:59;;;;;;;7.37;2.57;;;0.50;99.90;;;;;;5003687;28;20271;-87
2021/12/03 04:12:25;;;;;;;7.63;3.30;;;0.60;99.90;;;;;;4997731;28;20101;-86
2021/12/03 04:14:51;;;;;;;4.83;2.30;;;0.60;99.90;;;;;;4997010;28;20164;-87
2021/12/03 04:17:20;;;;;;;6.40;2.77;;;0.50;99.90;;;;;;5010955;28;20068;-87
2021/12/03 04:19:45;;;;;;;7.17;3.07;;;0.60;99.90;;;;;;5037210;28;20042;-87
2021/12/03 04:22:15;;;;;;;7.33;2.90;;;0.60;99.90;;;;;;5022459;28;20022;-87
2021/12/03 04:24:42;;;;;;;5.93;2.80;;;0.60;99.90;;;;;;5029542;28;20481;-88
2021/12/03 04:27:08;;;;;;;7.97;3.07;;;0.40;99.90;;;;;;5041580;28;20096;-87
2021/12/03 04:29:34;;;;;;;7.00;3.00;;;0.60;99.90;;;;;;5041486;28;20029;-87
2021/12/03 04:32:00;;;;;;;7.00;3.17;;;0.60;99.90;;;;;;5025485;28;20084;-87
2021/12/03 04:34:25;;;;;;;6.57;3.10;;;0.60;99.90;;;;;;5019465;28;20044;-88
2021/12/03 04:36:51;;;;;;;8.87;3.13;;;0.60;99.90;;;;;;5004835;28;20065;-87
2021/12/03 04:39:17;;;;;;;6.03;2.60;;;0.60;99.90;;;;;;5007903;28;20025;-86
2021/12/03 04:41:43;;;;;;;7.50;3.33;;;0.60;99.90;;;;;;5023539;28;20067;-87
2021/12/03 04:44:09;;;;;;;6.63;2.80;;;0.60;99.90;;;;;;5037315;28;20033;-88
2021/12/03 04:46:37;;;;;;;6.57;3.27;;;0.60;99.90;;;;;;5032416;28;20034;-88
2021/12/03 04:49:02;;;;;;;6.83;2.87;;;0.60;99.90;;;;;;5007646;28;20088;-87
2021/12/03 04:51:28;;;;;;;5.63;2.87;;;0.60;99.90;;;;;;5002058;28;20038;-87
2021/12/03 04:53:56;;;;;;;7.40;3.10;;;0.60;99.90;;;;;;5002279;28;20034;-86
2021/12/03 04:56:22;;;;;;;7.00;2.97;;;0.70;99.90;;;;;;5013084;28;20097;-88
2021/12/03 04:58:48;;;;;;;10.40;3.73;;;0.70;99.90;;;;;;5010854;28;20019;-88
2021/12/03 05:01:14;;;;;;;8.37;3.00;;;0.70;99.90;;;;;;5035215;28;20050;-88
2021/12/03 05:03:40;;;;;;;8.40;3.33;;;0.80;99.90;;;;;;5034436;28;20029;-89
2021/12/03 05:06:09;;;;;;;6.70;2.90;;;0.70;99.90;;;;;;5018369;28;20519;-88
2021/12/03 05:08:35;;;;;;;10.50;3.90;;;0.70;99.90;;;;;;5001309;28;20121;-87
2021/12/03 05:11:01;;;;;;;9.50;3.03;;;0.70;99.90;;;;;;5002704;28;20068;-88
2021/12/03 05:13:31;;;;;;;8.33;3.07;;;0.70;99.90;;;;;;5001616;28;20042;-87
2021/12/03 05:15:57;;;;;;;8.07;3.37;;;0.70;99.90;;;;;;5000962;28;20068;-87
2021/12/03 05:18:25;;;;;;;6.47;3.20;;;0.70;99.90;;;;;;5001592;28;20108;-87
2021/12/03 05:20:53;;;;;;;7.27;3.30;;;0.70;99.90;;;;;;5001837;28;20085;-87
2021/12/03 05:23:21;;;;;;;7.93;3.20;;;0.90;99.90;;;;;;5002538;28;20557;-87
2021/12/03 05:25:47;;;;;;;6.87;3.17;;;0.70;99.90;;;;;;5020782;28;20029;-87
2021/12/03 05:28:15;;;;;;;8.07;3.20;;;0.80;99.90;;;;;;5020093;28;20033;-87
2021/12/03 05:30:41;;;;;;;8.07;4.27;;;0.70;99.90;;;;;;5017130;28;20045;-86
2021/12/03 05:33:10;;;;;;;8.27;2.87;;;0.80;99.90;;;;;;5014915;28;20046;-87
2021/12/03 05:35:36;;;;;;;6.30;2.93;;;0.80;99.90;;;;;;5014461;28;20228;-87
2021/12/03 05:38:02;;;;;;;8.63;3.37;;;0.80;99.90;;;;;;5013065;28;20088;-89
2021/12/03 05:40:28;;;;;;;8.13;3.17;;;0.80;99.90;;;;;;5009064;28;20026;-88
2021/12/03 05:42:55;;;;;;;9.73;4.03;;;0.80;99.90;;;;;;5005381;28;20030;-88
2021/12/03 05:45:31;;;;;;;8.07;2.83;;;0.80;99.90;;;;;;5010921;28;20101;-86
2021/12/03 05:47:58;;;;;;;6.77;3.47;;;0.90;99.90;;;;;;5010373;28;20053;-88
2021/12/03 05:50:24;;;;;;;8.43;3.20;;;0.90;99.90;;;;;;5012399;28;20021;-87
2021/12/03 05:52:51;;;;;;;7.47;3.23;;;0.90;99.90;;;;;;5007784;28;20033;-87
2021/12/03 05:55:18;;;;;;;6.03;3.10;;;0.80;99.90;;;;;;5007563;28;20031;-87
2021/12/03 05:57:45;;;;;;;8.87;2.93;;;0.90;99.90;;;;;;5007086;28;20474;-87
2021/12/03 06:00:33;;;;;;;7.77;3.67;;;0.80;99.90;;;;;;5006747;28;20028;-87
2021/12/03 06:02:59;;;;;;;6.67;3.23;;;0.80;99.90;;;;;;5006757;28;20172;-87
2021/12/03 06:05:27;;;;;;;7.83;2.87;;;0.80;99.90;;;;;;5012012;28;20030;-87
2021/12/03 06:07:53;;;;;;;7.60;3.10;;;0.80;99.90;;;;;;5011836;28;20030;-89
2021/12/03 06:10:19;;;;;;;8.37;3.03;;;0.80;99.90;;;;;;5003383;28;20101;-87
2021/12/03 06:12:46;;;;;;;6.63;3.30;;;0.70;99.90;;;;;;5010950;28;20429;-89
2021/12/03 06:15:13;;;;;;;7.60;3.13;;;0.70;99.90;;;;;;5015301;28;20141;-88
2021/12/03 06:17:39;;;;;;;8.07;3.10;;;0.70;99.90;;;;;;5012927;28;20272;-88
2021/12/03 06:20:06;;;;;;;6.90;2.93;;;0.70;99.90;;;;;;5014256;28;20021;-89
2021/12/03 06:22:33;;;;;;;5.10;2.90;;;0.80;99.90;;;;;;5012554;28;20019;-89
2021/12/03 06:25:00;;;;;;;7.53;3.33;;;0.80;99.90;;;;;;5013182;28;20030;-89
2021/12/03 06:27:26;;;;;;;7.13;3.70;;;0.80;99.90;;;;;;5013026;28;20455;-89
2021/12/03 06:29:52;;;;;;;10.27;3.87;;;0.90;99.90;;;;;;5011132;28;20037;-89
2021/12/03 06:32:18;;;;;;;9.50;3.97;;;0.90;99.90;;;;;;5008166;28;20049;-89
2021/12/03 06:34:47;;;;;;;7.93;3.13;;;0.90;99.90;;;;;;5006469;28;20112;-90
2021/12/03 06:37:13;;;;;;;6.43;3.17;;;0.90;99.90;;;;;;5006571;28;20504;-89
2021/12/03 06:39:49;;;;;;;9.00;3.27;;;0.90;99.90;;;;;;5015745;28;20113;-91
2021/12/03 06:42:43;;;;;;;5.20;2.60;;;0.90;99.90;;;;;;5003396;28;20097;-91
2021/12/03 06:46:04;;;;;;;7.43;3.13;;;0.90;99.90;;;;;;5005528;28;20036;-91
2021/12/03 06:48:40;;;;;;;7.83;3.40;;;0.90;99.90;;;;;;4991892;28;20034;-89
2021/12/03 06:54:29;;;;;;;5.57;2.80;;;0.80;99.90;;;;;;5003619;28;20057;-91
2021/12/03 06:57:13;;;;;;;7.13;2.83;;;0.80;99.90;;;;;;5009196;28;20046;-90
2021/12/03 06:59:47;;;;;;;5.93;2.87;;;0.80;99.90;;;;;;5007690;28;20050;-90
2021/12/03 07:02:24;;;;;;;7.67;3.10;;;0.80;99.90;;;;;;5014193;28;20029;-91
2021/12/03 07:04:57;;;;;;;6.30;2.50;;;0.70;99.90;;;;;;5004773;28;20026;-90
2021/12/03 07:07:23;;;;;;;6.40;2.87;;;0.70;99.90;;;;;;5003053;28;20023;-91
2021/12/03 07:09:49;;;;;;;5.97;2.53;;;0.60;99.90;;;;;;5005251;28;20513;-90
2021/12/03 07:12:25;;;;;;;6.37;2.60;;;0.50;99.90;;;;;;5004977;28;20105;-90
2021/12/03 07:14:54;;;;;;;5.87;2.90;;;0.60;99.90;;;;;;5007881;28;20022;-91
2021/12/03 07:17:23;;;;;;;7.63;2.63;;;0.60;99.90;;;;;;5001746;28;20031;-92
2021/12/03 07:19:58;;;;;;;6.47;2.63;;;0.60;99.90;;;;;;4994449;28;20109;-91
2021/12/03 07:22:33;;;;;;;10.73;3.20;;;0.50;99.90;;;;;;4994173;28;20092;-91
2021/12/03 07:25:19;;;;;;;8.17;3.20;;;0.60;99.90;;;;;;5016385;28;20021;-91
2021/12/03 07:28:26;;;;;;;5.63;2.27;;;0.60;99.90;;;;;;5036717;23;20088;-91
2021/12/03 07:31:23;;;;;;;4.93;2.90;;;0.60;99.90;;;;;;5031213;28;20052;-90
2021/12/03 07:33:56;;;;;;;7.97;3.07;;;0.60;99.90;;;;;;5027906;28;20029;-91
2021/12/03 07:40:03;;;;;;;6.43;2.53;;;0.60;99.90;;;;;;5082682;22;20059;-91
2021/12/03 07:43:16;;;;;;;;;;;;;;;;;;;;;
2021/12/03 07:49:05;;;;;;;6.00;2.73;;;0.50;99.90;;;;;;5047098;28;19905;-91
2021/12/03 07:51:54;;;;;;;7.53;2.80;;;0.60;99.90;;;;;;5067643;28;20028;-91
2021/12/03 07:54:49;;;;;;;7.47;3.13;;;0.50;99.90;;;;;;5067525;28;20485;-90
2021/12/03 07:57:59;;;;;;;;;;;;;;;;;;;;;
2021/12/03 08:01:03;;;;;;;6.17;2.60;;;0.50;99.90;;;;;;5039997;28;20029;-91
2021/12/03 08:03:59;;;;;;;6.80;3.63;;;0.50;99.90;;;;;;5039462;28;20127;-91
2021/12/03 08:06:51;;;;;;;;;;;;;;;;;;;;;
2021/12/03 08:09:17;;;;;;;4.57;2.05;;;0.50;99.90;;;;;;5032589;28;20036;-90
2021/12/03 08:11:57;;;;;;;6.23;2.67;;;0.50;99.90;;;;;;5043456;28;20025;-89
2021/12/03 08:14:42;;;;;;;5.63;2.93;;;0.50;99.90;;;;;;5041534;28;20029;-90
2021/12/03 08:17:38;;;;;;;6.23;3.20;;;0.60;99.90;;;;;;5054826;28;20120;-89
2021/12/03 08:20:15;;;;;;;5.50;2.73;;;0.70;99.90;;;;;;5039910;28;20044;-89
2021/12/03 08:22:41;;;;;;;7.03;3.13;;;0.80;99.90;;;;;;5032328;28;20503;-88
2021/12/03 08:25:13;;;;;;;7.50;3.10;;;1.00;99.90;;;;;;5050232;28;20029;-89
2021/12/03 08:27:41;;;;;;;7.65;2.58;;;1.10;99.90;;;;;;5051492;28;20343;-88
2021/12/03 08:30:09;;;;;;;6.37;2.23;;;1.10;99.90;;;;;;5050041;28;20452;-88
2021/12/03 08:32:35;;;;;;;6.07;2.80;;;1.10;99.90;;;;;;5044269;28;20036;-89
2021/12/03 08:35:01;;;;;;;6.40;2.87;;;1.10;99.90;;;;;;5047899;28;20035;-88
2021/12/03 08:37:26;;;;;;;4.60;2.13;;;1.10;99.90;;;;;;5030025;28;20033;-89
2021/12/03 08:39:55;;;;;;;6.20;2.57;;;1.00;99.90;;;;;;5054605;28;20108;-89
2021/12/03 08:42:43;;;;;;;8.10;2.67;;;1.00;99.90;;;;;;5038846;28;20082;-90
2021/12/03 08:45:09;;;;;;;5.57;2.40;;;1.10;99.90;;;;;;5042051;28;20025;-89
2021/12/03 08:47:37;;;;;;;4.77;2.00;;;1.10;99.90;;;;;;5042411;28;20084;-88
2021/12/03 08:50:15;;;;;;;7.33;1.90;;;1.00;99.90;;;;;;5063445;28;20074;-89
2021/12/03 08:53:06;;;;;;;7.53;1.77;;;1.00;99.90;;;;;;5043972;28;20125;-90
2021/12/03 08:55:32;;;;;;;5.20;1.70;;;1.00;99.90;;;;;;5062710;28;20025;-88
2021/12/03 08:57:58;;;;;;;4.57;1.60;;;1.10;99.90;;;;;;5057092;28;20033;-88
2021/12/03 09:00:24;;;;;;;4.27;1.80;;;1.00;99.90;;;;;;5048439;28;20083;-88
2021/12/03 09:02:50;;;;;;;5.80;1.80;;;1.00;99.90;;;;;;5040019;28;20026;-89
2021/12/03 09:05:21;;;;;;;4.60;1.50;;;1.10;99.90;;;;;;5038102;28;20362;-89
2021/12/03 09:07:46;;;;;;;6.07;1.80;;;1.00;99.90;;;;;;5047026;28;20017;-89
2021/12/03 09:10:15;;;;;;;4.33;1.50;;;1.20;99.90;;;;;;5064762;28;20033;-89
2021/12/03 09:13:00;;;;;;;6.03;1.60;;;1.30;99.90;;;;;;5046562;28;20060;-89
2021/12/03 09:15:31;;;;;;;2.17;1.00;;;1.40;99.90;;;;;;5068781;28;20025;-89
2021/12/03 09:23:57;;;;;;;4.13;1.33;;;1.60;99.90;;;;;;5031767;28;20034;-89
2021/12/03 09:26:29;;;;;;;3.50;1.20;;;1.50;99.90;;;;;;5050286;28;20049;-90
2021/12/03 09:29:03;;;;;;;2.72;1.20;;;1.50;99.90;;;;;;5038778;28;20018;-89
2021/12/03 09:31:34;;;;;;;2.40;0.93;;;1.40;99.90;;;;;;5047743;28;20044;-89
2021/12/03 09:34:00;;;;;;;2.10;1.03;;;1.40;99.90;;;;;;5046808;28;20052;-89
2021/12/03 09:36:27;;;;;;;2.60;1.13;;;1.20;99.90;;;;;;5065753;28;20049;-90
2021/12/03 09:38:53;;;;;;;6.93;1.10;;;1.20;99.90;;;;;;5065327;28;20029;-89
2021/12/03 09:41:20;;;;;;;4.73;1.20;;;1.20;99.90;;;;;;5049023;28;20028;-89
2021/12/03 09:43:54;;;;;;;3.00;1.10;;;1.30;99.90;;;;;;5051046;28;20520;-90
2021/12/03 09:46:27;;;;;;;3.03;1.10;;;1.20;99.90;;;;;;5062531;28;20441;-90
2021/12/03 09:51:57;;;;;;;3.10;1.10;;;1.30;99.90;;;;;;5045233;28;20017;-89
2021/12/03 09:54:28;;;;;;;4.93;1.02;;;1.30;99.90;;;;;;5043075;28;20025;-89
2021/12/03 09:57:12;;;;;;;1.80;0.80;;;1.30;99.90;;;;;;5066980;28;20028;-90
2021/12/03 10:00:05;;;;;;;2.43;0.90;;;1.40;99.90;;;;;;5047767;28;20017;-89
2021/12/03 10:03:08;;;;;;;;;;;1.30;99.90;;;;;;5063848;28;20430;-90
2021/12/03 10:13:24;;;;;;;3.37;0.80;;;1.50;99.90;;;;;;5048295;28;20031;-89
2021/12/03 10:45:56;;;;;;;2.67;0.90;;;1.70;99.90;;;;;;5048954;28;20021;-89
2021/12/03 10:48:39;;;;;;;2.90;1.00;;;1.60;99.90;;;;;;5051253;28;20061;-90
2021/12/03 11:54:46;;;;;;;2.07;0.87;;;2.40;99.90;;;;;;5020136;28;20525;-86
2021/12/03 13:08:26;;;;;;;4.45;0.90;;;2.60;99.90;;;;;;5015951;28;20102;-84
2021/12/03 13:19:56;;;;;;;3.30;1.27;;;2.80;99.90;;;;;;5003998;28;20070;-85
2021/12/03 13:39:40;;;;;;;1.87;0.70;;;2.80;99.90;;;;;;5017708;28;20067;-84
2021/12/03 14:11:47;;;;;;;3.63;1.10;;;2.50;99.90;;;;;;5007390;28;20053;-85
2021/12/03 14:18:51;;;;;;;1.53;0.60;;;2.50;99.90;;;;;;5009211;28;20036;-85
2021/12/03 14:24:36;;;;;;;8.10;1.13;;;2.50;99.90;;;;;;5015019;28;20513;-85
2021/12/03 14:42:32;;;;;;;3.43;0.80;;;2.70;99.90;;;;;;4997724;28;20019;-85
2021/12/03 14:44:40;;;;;;;2.70;0.70;;;2.70;99.90;;;;;;4991831;28;20046;-86
2021/12/03 14:47:32;;;;;;;5.30;0.90;;;2.70;99.90;;;;;;4989348;28;20033;-85
2021/12/03 14:53:14;;;;;;;2.10;0.77;;;2.70;99.90;;;;;;5010066;28;20036;-85
2021/12/03 14:55:44;;;;;;;1.20;0.50;;;2.60;99.90;;;;;;4995564;28;20033;-86
2021/12/03 14:58:17;;;;;;;1.30;0.60;;;2.60;99.90;;;;;;5011121;28;20041;-86
2021/12/03 15:06:01;;;;;;;4.43;0.67;;;2.60;99.90;;;;;;5007588;28;20219;-86
2021/12/03 15:08:42;;;;;;;1.47;0.50;;;2.50;99.90;;;;;;5010769;28;20022;-86
2021/12/03 15:32:05;;;;;;;1.93;0.50;;;2.00;99.90;;;;;;5011016;28;20558;-85
2021/12/03 15:34:43;;;;;;;2.03;0.70;;;2.00;99.90;;;;;;4990642;28;20041;-85
2021/12/03 15:56:23;;;;;;;1.53;0.63;;;2.10;99.90;;;;;;5001662;28;20142;-83
2021/12/03 16:04:22;;;;;;;4.03;1.10;;;2.00;99.90;;;;;;5007605;28;20080;-84
2021/12/03 16:09:49;;;;;;;2.10;0.73;;;1.90;99.90;;;;;;5008875;28;20034;-83
2021/12/03 16:23:06;;;;;;;2.47;0.80;;;1.90;99.90;;;;;;4996284;28;20029;-84
2021/12/03 16:51:51;;;;;;;2.85;0.60;;;1.70;99.90;;;;;;5024892;28;20027;-87
2021/12/03 16:54:40;;;;;;;1.73;0.57;;;1.70;99.90;;;;;;5024266;28;20064;-87
2021/12/03 16:57:08;;;;;;;1.60;0.33;;;1.70;99.90;;;;;;5026903;28;20034;-86
2021/12/03 16:59:33;;;;;;;1.87;0.67;;;1.60;99.90;;;;;;5025737;28;20017;-87
2021/12/03 17:02:08;;;;;;;3.17;1.00;;;1.60;99.90;;;;;;5023969;28;20026;-87
2021/12/03 17:12:50;;;;;;;2.73;0.63;;;1.50;99.90;;;;;;5015746;28;20030;-87
2021/12/03 17:48:33;;;;;;;3.80;0.80;;;1.30;99.90;;;;;;4981668;28;20038;-88
2021/12/03 17:51:11;;;;;;;3.47;0.70;;;1.30;99.90;;;;;;4966744;28;20130;-89
2021/12/03 17:53:57;;;;;;;3.63;0.80;;;1.40;99.90;;;;;;4991483;28;20118;-88
2021/12/03 17:56:34;;;;;;;5.13;0.80;;;1.30;99.90;;;;;;4970235;28;20427;-89
2021/12/03 17:59:46;;;;;;;4.70;0.90;;;1.30;99.90;;;;;;4982302;28;20081;-89
2021/12/03 18:11:37;;;;;;;2.67;0.60;;;1.20;99.90;;;;;;4974673;28;20020;-91
2021/12/03 19:49:22;;;;;;;4.57;1.30;;;1.80;99.90;;;;;;4952602;28;20035;-87
2021/12/03 19:51:59;;;;;;;3.25;1.05;;;1.50;99.90;;;;;;4965882;28;20536;-88
2021/12/03 19:54:25;;;;;;;7.07;1.43;;;1.70;99.90;;;;;;4951117;29;20023;-88
2021/12/03 19:56:51;;;;;;;3.90;1.23;;;1.60;99.90;;;;;;4949223;29;20066;-88
2021/12/03 19:59:19;;;;;;;3.30;1.17;;;1.70;99.90;;;;;;4952245;29;20059;-88
2021/12/03 20:01:46;;;;;;;3.23;1.00;;;1.60;99.90;;;;;;4943949;29;20043;-89
2021/12/03 20:04:13;;;;;;;2.53;1.20;;;1.60;99.90;;;;;;4951452;28;20023;-88
2021/12/03 20:06:46;;;;;;;3.93;1.30;;;1.60;99.90;;;;;;4951105;29;20184;-89
2021/12/03 20:09:20;;;;;;;3.10;1.20;;;1.60;99.90;;;;;;4955287;29;20019;-89
2021/12/03 20:11:56;;;;;;;4.67;1.30;;;1.60;99.90;;;;;;4953183;28;20031;-89
2021/12/03 20:14:25;;;;;;;3.13;1.23;;;1.50;99.90;;;;;;4955309;28;20054;-90
2021/12/03 20:19:39;;;;;;;3.60;1.47;;;1.60;99.90;;;;;;4952311;29;20499;-89
2021/12/03 20:22:23;;;;;;;2.93;1.13;;;1.60;99.90;;;;;;4958719;28;20054;-93
2021/12/03 20:28:07;;;;;;;2.30;1.00;;;1.70;99.90;;;;;;4934673;29;20042;-88
2021/12/03 20:31:02;;;;;;;;;;;;;;;;;;;;;
2021/12/03 20:36:51;;;;;;;4.83;1.20;;;1.70;99.90;;;;;;4953589;28;20027;-90
2021/12/03 20:39:23;;;;;;;4.80;0.87;;;1.80;99.90;;;;;;4961687;28;20042;-88
2021/12/03 20:42:03;;;;;;;4.07;1.07;;;1.60;99.90;;;;;;4952531;28;20024;-89
2021/12/03 20:47:51;;;;;;;4.33;1.20;;;1.70;99.90;;;;;;4955543;29;20101;-91
2021/12/03 20:53:31;;;;;;;1.70;0.60;;;1.80;99.90;;;;;;4955083;29;20042;-89
2021/12/03 21:10:21;;;;;;;;;;;;;;;;;;;;;
2021/12/03 21:13:07;;;;;;;;;;;;;;;;;;;;;
2021/12/03 21:15:58;;;;;;;2.50;0.70;;;2.10;99.90;;;;;;4957877;28;20121;-89
2021/12/03 21:19:07;;;;;;;1.60;0.60;;;2.10;99.90;;;;;;4958210;29;20031;-88
2021/12/03 21:21:42;;;;;;;2.30;0.70;;;2.10;99.90;;;;;;4949326;29;20512;-88
2021/12/03 21:24:19;;;;;;;3.27;0.77;;;2.20;99.90;;;;;;4957025;28;20453;-88
2021/12/03 21:26:58;;;;;;;2.73;0.97;;;2.10;99.90;;;;;;4957808;28;20035;-89
2021/12/03 21:32:17;;;;;;;2.53;0.70;;;2.20;99.90;;;;;;4959602;28;20070;-89
2021/12/03 21:40:19;;;;;;;2.23;0.77;;;2.20;99.90;;;;;;4963031;29;20086;-90
2021/12/03 21:42:45;;;;;;;1.90;0.70;;;2.10;99.90;;;;;;4953169;29;20053;-90
2021/12/03 21:45:12;;;;;;;1.33;0.53;;;2.10;99.90;;;;;;4960322;28;20027;-90
2021/12/03 21:47:38;;;;;;;2.30;0.83;;;2.10;99.90;;;;;;4962471;28;20047;-90
2021/12/03 21:50:10;;;;;;;3.67;0.70;;;2.10;99.90;;;;;;4962125;28;20042;-89
2021/12/03 21:52:39;;;;;;;1.70;0.73;;;2.00;99.90;;;;;;4961908;29;20023;-88
2021/12/03 21:55:10;;;;;;;4.30;0.97;;;2.10;99.90;;;;;;4965003;28;20031;-90
2021/12/03 21:57:41;;;;;;;1.80;0.57;;;2.10;99.90;;;;;;4973693;29;20031;-90
2021/12/03 22:00:10;;;;;;;2.47;0.70;;;2.20;99.90;;;;;;4969497;28;20102;-90
2021/12/03 22:02:36;;;;;;;5.13;0.70;;;2.10;99.90;;;;;;4960010;29;20024;-90
2021/12/03 22:05:03;;;;;;;1.67;0.67;;;2.40;99.90;;;;;;4960056;28;20097;-90
2021/12/03 22:07:29;;;;;;;2.60;1.27;;;2.20;99.90;;;;;;4957679;29;20031;-90
2021/12/03 22:09:59;;;;;;;1.90;0.40;;;2.30;99.90;;;;;;4958146;29;20058;-90
2021/12/03 22:12:25;;;;;;;1.63;0.60;;;2.20;99.90;;;;;;4955691;28;20035;-90
2021/12/03 22:14:54;;;;;;;3.90;0.93;;;2.20;99.90;;;;;;4954654;28;20042;-89
2021/12/03 22:17:20;;;;;;;2.17;0.90;;;2.20;99.90;;;;;;4956033;29;20042;-90
2021/12/03 22:19:46;;;;;;;2.07;0.60;;;2.30;99.90;;;;;;4950601;29;20023;-91
2021/12/03 22:22:15;;;;;;;1.73;0.60;;;2.30;99.90;;;;;;4974826;28;20472;-89
2021/12/03 22:24:50;;;;;;;3.13;1.13;;;2.30;99.90;;;;;;4961968;28;20047;-89
2021/12/03 22:27:19;;;;;;;2.43;0.80;;;2.30;99.90;;;;;;4955102;29;20073;-88
2021/12/03 22:29:46;;;;;;;3.00;0.90;;;2.40;99.90;;;;;;4955410;29;20027;-88